Flight Number: AVA1778 Duration: 1:15
Departure: Roma Fiumicino (LIRF) at 09:15 Distance: 518.369 Nm
Arrival: Frankfurt am Main (EDDF) at 10:30 Equipment: A321

Weather Information
Roma Fiumicino, Italy (LIRF) 41-48N 012-14E 3M Feb 25, 2021 - 06:50 PM EST / 2021.02.25 2350 UTC
Wind: from the NNW (330 degrees) at 1 MPH (1 KT):0
Visibility: less than 1 mile:0 Weather: fog Temperature: 42 F (6 C) Dew Point: 42 F (6 C) Relative Humidity: 100% Pressure (altimeter): 30.42 in. Hg (1030 hPa)
ob: LIRF 252350Z 33001KT 0150 R16L/0500D R16R/0550N R25/0350N R34R/0300N FG NSC 06/06 Q1030 NOSIG cycle: 0
Sunrise: 05:52 Sunset: 16:55 (UTC)

Frankfurt / M-Flughafen, Germany (EDDF) 50-03N 008-36E 113M Feb 25, 2021 - 06:50 PM EST / 2021.02.25 2350 UTC
Wind: Variable at 1 MPH (1 KT):0
Visibility: greater than 7 mile(s):0 Temperature: 39 F (4 C) Dew Point: 35 F (2 C) Relative Humidity: 86% Pressure (altimeter): 30.36 in. Hg (1028 hPa)
ob: EDDF 252350Z VRB01KT CAVOK 04/02 Q1028 NOSIG cycle: 0
Sunrise: 06:17 Sunset: 16:59 (UTC)

TAF:2021/02/25 18:27 TAF TAF EDDF 251700Z 2518/2624 18003KT CAVOK BECMG 2606/2608 BKN025 BECMG 2609/2611 36005KT TEMPO 2609/2613 BKN012

Previous Pireps for this route
Date Aircraft Flight time Fuel used Landing rate On time
2020-10-11MD-811.4411665-801Yes
(pireps marked green are flown by you)

Route map